sensor_id;sensor_type;location;lat;lon;timestamp;pressure;altitude;pressure_sealevel;temperature;humidity
84994;BME280;75309;44.830;20.460;2024-02-23T00:00:06;100057.80;;;13.68;38.44
84994;BME280;75309;44.830;20.460;2024-02-23T00:02:57;100055.19;;;13.67;38.50
84994;BME280;75309;44.830;20.460;2024-02-23T00:05:25;100052.95;;;13.67;38.42
84994;BME280;75309;44.830;20.460;2024-02-23T00:07:51;100049.13;;;13.66;38.34
84994;BME280;75309;44.830;20.460;2024-02-23T00:10:18;100051.68;;;13.65;38.15
84994;BME280;75309;44.830;20.460;2024-02-23T00:12:45;100054.06;;;13.64;38.37
84994;BME280;75309;44.830;20.460;2024-02-23T00:15:14;100055.44;;;13.63;38.38
84994;BME280;75309;44.830;20.460;2024-02-23T00:17:40;100056.79;;;13.62;38.34
84994;BME280;75309;44.830;20.460;2024-02-23T00:20:09;100052.48;;;13.63;38.31
84994;BME280;75309;44.830;20.460;2024-02-23T00:22:38;100055.05;;;13.62;38.42
84994;BME280;75309;44.830;20.460;2024-02-23T00:25:05;100050.90;;;13.62;38.11
84994;BME280;75309;44.830;20.460;2024-02-23T00:27:33;100051.23;;;13.61;38.34
84994;BME280;75309;44.830;20.460;2024-02-23T00:30:00;100048.48;;;13.61;38.28
84994;BME280;75309;44.830;20.460;2024-02-23T00:32:27;100047.45;;;13.62;38.38
84994;BME280;75309;44.830;20.460;2024-02-23T00:34:57;100044.85;;;13.61;38.33
84994;BME280;75309;44.830;20.460;2024-02-23T00:37:24;100052.44;;;13.61;38.34
84994;BME280;75309;44.830;20.460;2024-02-23T00:39:50;100046.92;;;13.60;38.38
84994;BME280;75309;44.830;20.460;2024-02-23T00:42:17;100048.08;;;13.59;38.32
84994;BME280;75309;44.830;20.460;2024-02-23T00:44:44;100048.09;;;13.59;38.35
84994;BME280;75309;44.830;20.460;2024-02-23T00:47:11;100044.85;;;13.60;38.42
84994;BME280;75309;44.830;20.460;2024-02-23T00:49:38;100043.66;;;13.61;38.28
84994;BME280;75309;44.830;20.460;2024-02-23T00:52:05;100044.69;;;13.61;38.36
84994;BME280;75309;44.830;20.460;2024-02-23T00:54:32;100047.55;;;13.58;38.29
84994;BME280;75309;44.830;20.460;2024-02-23T00:56:59;100047.90;;;13.59;38.36
84994;BME280;75309;44.830;20.460;2024-02-23T00:59:26;100046.85;;;13.58;38.13
84994;BME280;75309;44.830;20.460;2024-02-23T01:01:54;100043.21;;;13.58;38.15
84994;BME280;75309;44.830;20.460;2024-02-23T01:04:21;100043.76;;;13.58;38.34
84994;BME280;75309;44.830;20.460;2024-02-23T01:06:48;100047.06;;;13.60;38.30
84994;BME280;75309;44.830;20.460;2024-02-23T01:09:14;100040.02;;;13.61;38.32
84994;BME280;75309;44.830;20.460;2024-02-23T01:11:43;100041.45;;;13.62;38.37
84994;BME280;75309;44.830;20.460;2024-02-23T01:14:11;100038.39;;;13.63;38.25
84994;BME280;75309;44.830;20.460;2024-02-23T01:16:38;100039.57;;;13.63;38.42
84994;BME280;75309;44.830;20.460;2024-02-23T01:19:05;100038.52;;;13.62;38.36
84994;BME280;75309;44.830;20.460;2024-02-23T01:21:31;100039.55;;;13.62;38.07
84994;BME280;75309;44.830;20.460;2024-02-23T01:23:58;100031.77;;;13.60;38.34
84994;BME280;75309;44.830;20.460;2024-02-23T01:26:26;100033.49;;;13.61;38.28
84994;BME280;75309;44.830;20.460;2024-02-23T01:28:54;100033.52;;;13.61;38.13
84994;BME280;75309;44.830;20.460;2024-02-23T01:31:20;100034.02;;;13.62;38.27
84994;BME280;75309;44.830;20.460;2024-02-23T01:33:47;100035.11;;;13.63;38.35
84994;BME280;75309;44.830;20.460;2024-02-23T01:36:16;100027.35;;;13.63;38.28
84994;BME280;75309;44.830;20.460;2024-02-23T01:38:43;100026.14;;;13.63;38.11
84994;BME280;75309;44.830;20.460;2024-02-23T01:41:10;100019.47;;;13.64;38.27
84994;BME280;75309;44.830;20.460;2024-02-23T01:43:38;100019.30;;;13.65;38.15
84994;BME280;75309;44.830;20.460;2024-02-23T01:46:05;100013.92;;;13.63;38.12
84994;BME280;75309;44.830;20.460;2024-02-23T01:48:32;100009.71;;;13.60;38.13
84994;BME280;75309;44.830;20.460;2024-02-23T01:51:00;100012.63;;;13.59;38.12
84994;BME280;75309;44.830;20.460;2024-02-23T01:53:27;100017.74;;;13.58;38.19
84994;BME280;75309;44.830;20.460;2024-02-23T01:55:55;100012.89;;;13.57;38.10
84994;BME280;75309;44.830;20.460;2024-02-23T01:58:22;100018.76;;;13.57;38.10
84994;BME280;75309;44.830;20.460;2024-02-23T02:00:49;100016.48;;;13.56;37.99
84994;BME280;75309;44.830;20.460;2024-02-23T02:03:15;100015.80;;;13.56;38.14
84994;BME280;75309;44.830;20.460;2024-02-23T02:05:42;100018.55;;;13.56;38.19
84994;BME280;75309;44.830;20.460;2024-02-23T02:08:11;100014.92;;;13.56;38.09
84994;BME280;75309;44.830;20.460;2024-02-23T02:10:38;100014.05;;;13.54;38.09
84994;BME280;75309;44.830;20.460;2024-02-23T02:13:05;100010.38;;;13.53;38.09
84994;BME280;75309;44.830;20.460;2024-02-23T02:15:32;100006.02;;;13.50;38.06
84994;BME280;75309;44.830;20.460;2024-02-23T02:17:59;100003.79;;;13.51;38.04
84994;BME280;75309;44.830;20.460;2024-02-23T02:20:27;100006.88;;;13.50;38.15
84994;BME280;75309;44.830;20.460;2024-02-23T02:22:54;100004.75;;;13.48;38.08
84994;BME280;75309;44.830;20.460;2024-02-23T02:25:21;100004.92;;;13.48;38.20
84994;BME280;75309;44.830;20.460;2024-02-23T02:27:48;100005.20;;;13.46;38.13
84994;BME280;75309;44.830;20.460;2024-02-23T02:30:15;100006.73;;;13.44;38.22
84994;BME280;75309;44.830;20.460;2024-02-23T02:32:41;100009.27;;;13.44;38.14
84994;BME280;75309;44.830;20.460;2024-02-23T02:35:12;100007.05;;;13.44;38.23
84994;BME280;75309;44.830;20.460;2024-02-23T02:37:39;100003.62;;;13.44;38.23
84994;BME280;75309;44.830;20.460;2024-02-23T02:40:07;100001.05;;;13.45;38.29
84994;BME280;75309;44.830;20.460;2024-02-23T02:42:34;100000.73;;;13.46;38.22
84994;BME280;75309;44.830;20.460;2024-02-23T02:45:01;100001.10;;;13.47;38.29
84994;BME280;75309;44.830;20.460;2024-02-23T02:47:29;100002.84;;;13.47;38.24
84994;BME280;75309;44.830;20.460;2024-02-23T02:49:56;100004.09;;;13.49;38.33
84994;BME280;75309;44.830;20.460;2024-02-23T02:52:23;100000.11;;;13.49;38.35
84994;BME280;75309;44.830;20.460;2024-02-23T02:54:51;100000.42;;;13.47;38.36
84994;BME280;75309;44.830;20.460;2024-02-23T02:57:17;100006.27;;;13.47;38.36
84994;BME280;75309;44.830;20.460;2024-02-23T02:59:44;100004.77;;;13.49;38.19
84994;BME280;75309;44.830;20.460;2024-02-23T03:02:12;99999.60;;;13.49;38.32
84994;BME280;75309;44.830;20.460;2024-02-23T03:04:39;99993.77;;;13.50;38.29
84994;BME280;75309;44.830;20.460;2024-02-23T03:07:05;99997.52;;;13.48;38.39
84994;BME280;75309;44.830;20.460;2024-02-23T03:09:32;99993.05;;;13.48;38.47
84994;BME280;75309;44.830;20.460;2024-02-23T03:11:59;99995.97;;;13.48;38.37
84994;BME280;75309;44.830;20.460;2024-02-23T03:14:25;99985.46;;;13.48;38.38
84994;BME280;75309;44.830;20.460;2024-02-23T03:16:52;99982.64;;;13.46;38.43
84994;BME280;75309;44.830;20.460;2024-02-23T03:19:19;99981.91;;;13.44;38.45
84994;BME280;75309;44.830;20.460;2024-02-23T03:21:49;99978.73;;;13.41;38.46
84994;BME280;75309;44.830;20.460;2024-02-23T03:24:16;99984.69;;;13.38;38.44
84994;BME280;75309;44.830;20.460;2024-02-23T03:26:43;99978.02;;;13.34;38.57
84994;BME280;75309;44.830;20.460;2024-02-23T03:29:10;99977.79;;;13.32;38.63
84994;BME280;75309;44.830;20.460;2024-02-23T03:31:37;99976.05;;;13.31;38.72
84994;BME280;75309;44.830;20.460;2024-02-23T03:34:04;99970.70;;;13.30;38.81
84994;BME280;75309;44.830;20.460;2024-02-23T03:36:30;99968.67;;;13.33;38.81
84994;BME280;75309;44.830;20.460;2024-02-23T03:38:57;99968.69;;;13.33;38.69
84994;BME280;75309;44.830;20.460;2024-02-23T03:41:23;99969.16;;;13.31;38.75
84994;BME280;75309;44.830;20.460;2024-02-23T03:43:50;99969.64;;;13.30;38.75
84994;BME280;75309;44.830;20.460;2024-02-23T03:46:17;99972.83;;;13.27;38.84
84994;BME280;75309;44.830;20.460;2024-02-23T03:48:45;99978.10;;;13.25;38.94
84994;BME280;75309;44.830;20.460;2024-02-23T03:51:12;99980.30;;;13.23;38.95
84994;BME280;75309;44.830;20.460;2024-02-23T03:53:38;99981.00;;;13.23;38.91
84994;BME280;75309;44.830;20.460;2024-02-23T03:56:05;99980.95;;;13.22;39.06
84994;BME280;75309;44.830;20.460;2024-02-23T03:58:32;99984.75;;;13.22;39.09
84994;BME280;75309;44.830;20.460;2024-02-23T04:00:59;99983.06;;;13.23;39.14
84994;BME280;75309;44.830;20.460;2024-02-23T04:03:25;99980.83;;;13.23;39.16
84994;BME280;75309;44.830;20.460;2024-02-23T04:05:52;99980.31;;;13.23;39.26
84994;BME280;75309;44.830;20.460;2024-02-23T04:08:19;99978.30;;;13.26;39.32
84994;BME280;75309;44.830;20.460;2024-02-23T04:10:46;99977.80;;;13.26;39.30
84994;BME280;75309;44.830;20.460;2024-02-23T04:13:12;99981.25;;;13.26;39.30
84994;BME280;75309;44.830;20.460;2024-02-23T04:15:44;99982.09;;;13.26;39.34
84994;BME280;75309;44.830;20.460;2024-02-23T04:18:11;99981.75;;;13.25;39.43
84994;BME280;75309;44.830;20.460;2024-02-23T04:20:37;99981.22;;;13.25;39.50
84994;BME280;75309;44.830;20.460;2024-02-23T04:23:04;99978.02;;;13.27;39.44
84994;BME280;75309;44.830;20.460;2024-02-23T04:25:30;99973.69;;;13.27;39.54
84994;BME280;75309;44.830;20.460;2024-02-23T04:27:57;99968.70;;;13.27;39.54
84994;BME280;75309;44.830;20.460;2024-02-23T04:30:23;99966.29;;;13.27;39.68
84994;BME280;75309;44.830;20.460;2024-02-23T04:32:50;99966.83;;;13.27;39.66
84994;BME280;75309;44.830;20.460;2024-02-23T04:35:17;99969.08;;;13.28;39.81
84994;BME280;75309;44.830;20.460;2024-02-23T04:37:44;99964.81;;;13.29;39.69
84994;BME280;75309;44.830;20.460;2024-02-23T04:40:16;99955.58;;;13.31;39.72
84994;BME280;75309;44.830;20.460;2024-02-23T04:42:43;99953.83;;;13.31;39.79
84994;BME280;75309;44.830;20.460;2024-02-23T04:45:11;99951.09;;;13.31;39.73
84994;BME280;75309;44.830;20.460;2024-02-23T04:47:38;99949.40;;;13.32;39.71
84994;BME280;75309;44.830;20.460;2024-02-23T04:50:07;99950.95;;;13.32;39.73
84994;BME280;75309;44.830;20.460;2024-02-23T04:52:33;99953.27;;;13.34;39.87
84994;BME280;75309;44.830;20.460;2024-02-23T04:55:00;99957.06;;;13.35;39.81
84994;BME280;75309;44.830;20.460;2024-02-23T04:57:27;99955.72;;;13.36;39.91
84994;BME280;75309;44.830;20.460;2024-02-23T04:59:54;99956.92;;;13.36;39.90
84994;BME280;75309;44.830;20.460;2024-02-23T05:02:20;99957.81;;;13.37;39.98
84994;BME280;75309;44.830;20.460;2024-02-23T05:04:48;99961.66;;;13.39;39.99
84994;BME280;75309;44.830;20.460;2024-02-23T05:07:14;99960.48;;;13.41;39.89
84994;BME280;75309;44.830;20.460;2024-02-23T05:09:41;99962.92;;;13.42;40.11
84994;BME280;75309;44.830;20.460;2024-02-23T05:12:08;99962.96;;;13.43;40.09
84994;BME280;75309;44.830;20.460;2024-02-23T05:14:35;99965.91;;;13.44;40.05
84994;BME280;75309;44.830;20.460;2024-02-23T05:17:02;99966.26;;;13.44;40.09
84994;BME280;75309;44.830;20.460;2024-02-23T05:19:30;99970.55;;;13.44;40.09
84994;BME280;75309;44.830;20.460;2024-02-23T05:21:56;99968.02;;;13.46;40.18
84994;BME280;75309;44.830;20.460;2024-02-23T05:24:23;99965.80;;;13.47;40.08
84994;BME280;75309;44.830;20.460;2024-02-23T05:26:50;99964.96;;;13.47;40.12
84994;BME280;75309;44.830;20.460;2024-02-23T05:29:19;99967.52;;;13.47;40.19
84994;BME280;75309;44.830;20.460;2024-02-23T05:31:50;99970.33;;;13.48;40.19
84994;BME280;75309;44.830;20.460;2024-02-23T05:34:17;99971.18;;;13.49;40.25
84994;BME280;75309;44.830;20.460;2024-02-23T05:36:46;99975.52;;;13.50;40.26
84994;BME280;75309;44.830;20.460;2024-02-23T05:39:15;99979.37;;;13.52;40.23
84994;BME280;75309;44.830;20.460;2024-02-23T05:41:43;99977.64;;;13.51;40.25
84994;BME280;75309;44.830;20.460;2024-02-23T05:44:10;99981.46;;;13.53;40.24
84994;BME280;75309;44.830;20.460;2024-02-23T05:46:37;99983.70;;;13.53;40.22
84994;BME280;75309;44.830;20.460;2024-02-23T05:49:03;99986.13;;;13.53;40.26
84994;BME280;75309;44.830;20.460;2024-02-23T05:51:31;99985.16;;;13.56;40.26
84994;BME280;75309;44.830;20.460;2024-02-23T05:53:58;99988.42;;;13.55;40.30
84994;BME280;75309;44.830;20.460;2024-02-23T05:56:25;99983.27;;;13.56;40.26
84994;BME280;75309;44.830;20.460;2024-02-23T05:58:52;99978.06;;;13.55;40.34
84994;BME280;75309;44.830;20.460;2024-02-23T06:01:19;99978.08;;;13.55;40.31
84994;BME280;75309;44.830;20.460;2024-02-23T06:03:45;99976.38;;;13.56;40.32
84994;BME280;75309;44.830;20.460;2024-02-23T06:06:13;99971.70;;;13.55;40.47
84994;BME280;75309;44.830;20.460;2024-02-23T06:08:40;99974.99;;;13.56;40.42
84994;BME280;75309;44.830;20.460;2024-02-23T06:11:09;99979.95;;;13.55;40.39
84994;BME280;75309;44.830;20.460;2024-02-23T06:13:36;99978.92;;;13.55;40.36
84994;BME280;75309;44.830;20.460;2024-02-23T06:16:05;99980.36;;;13.57;40.56
84994;BME280;75309;44.830;20.460;2024-02-23T06:18:32;99981.80;;;13.59;40.51
84994;BME280;75309;44.830;20.460;2024-02-23T06:20:58;99981.65;;;13.60;40.43
84994;BME280;75309;44.830;20.460;2024-02-23T06:23:25;99983.89;;;13.60;40.46
84994;BME280;75309;44.830;20.460;2024-02-23T06:25:52;99985.26;;;13.60;40.49
84994;BME280;75309;44.830;20.460;2024-02-23T06:28:18;99988.86;;;13.59;40.45
84994;BME280;75309;44.830;20.460;2024-02-23T06:30:45;99990.61;;;13.61;40.46
84994;BME280;75309;44.830;20.460;2024-02-23T06:33:12;99992.02;;;13.62;40.47
84994;BME280;75309;44.830;20.460;2024-02-23T06:35:39;99995.29;;;13.62;40.45
84994;BME280;75309;44.830;20.460;2024-02-23T06:38:06;99997.77;;;13.64;40.53
84994;BME280;75309;44.830;20.460;2024-02-23T06:40:33;99996.05;;;13.64;40.48
84994;BME280;75309;44.830;20.460;2024-02-23T06:43:14;99991.98;;;13.67;40.63
84994;BME280;75309;44.830;20.460;2024-02-23T06:45:42;100001.34;;;13.69;40.66
84994;BME280;75309;44.830;20.460;2024-02-23T06:48:09;100009.48;;;13.71;40.57
84994;BME280;75309;44.830;20.460;2024-02-23T06:50:36;100015.18;;;13.72;40.64
84994;BME280;75309;44.830;20.460;2024-02-23T06:53:03;100011.73;;;13.72;40.65
84994;BME280;75309;44.830;20.460;2024-02-23T06:55:30;100016.95;;;13.74;40.53
84994;BME280;75309;44.830;20.460;2024-02-23T06:57:56;100022.10;;;13.74;40.65
84994;BME280;75309;44.830;20.460;2024-02-23T07:00:24;100029.22;;;13.76;40.67
84994;BME280;75309;44.830;20.460;2024-02-23T07:02:51;100032.89;;;13.78;40.67
84994;BME280;75309;44.830;20.460;2024-02-23T07:05:20;100026.63;;;13.82;40.70
84994;BME280;75309;44.830;20.460;2024-02-23T07:07:46;100025.24;;;13.88;40.64
84994;BME280;75309;44.830;20.460;2024-02-23T07:10:13;100025.52;;;13.92;40.72
84994;BME280;75309;44.830;20.460;2024-02-23T07:12:40;100027.37;;;13.97;40.72
84994;BME280;75309;44.830;20.460;2024-02-23T07:15:07;100031.33;;;14.04;40.75
84994;BME280;75309;44.830;20.460;2024-02-23T07:17:34;100029.40;;;14.11;40.78
84994;BME280;75309;44.830;20.460;2024-02-23T07:20:01;100033.98;;;14.15;40.72
84994;BME280;75309;44.830;20.460;2024-02-23T07:22:32;100032.59;;;14.21;40.84
84994;BME280;75309;44.830;20.460;2024-02-23T07:24:59;100033.58;;;14.26;40.81
84994;BME280;75309;44.830;20.460;2024-02-23T07:27:29;100034.71;;;14.31;40.69
84994;BME280;75309;44.830;20.460;2024-02-23T07:29:56;100041.47;;;14.32;40.83
84994;BME280;75309;44.830;20.460;2024-02-23T07:32:22;100042.95;;;14.36;40.72
84994;BME280;75309;44.830;20.460;2024-02-23T07:34:49;100045.80;;;14.40;40.75
84994;BME280;75309;44.830;20.460;2024-02-23T07:37:17;100050.17;;;14.43;40.55
84994;BME280;75309;44.830;20.460;2024-02-23T07:39:43;100054.33;;;14.44;40.48
84994;BME280;75309;44.830;20.460;2024-02-23T07:42:11;100048.65;;;14.45;40.45
84994;BME280;75309;44.830;20.460;2024-02-23T07:44:40;100048.89;;;14.47;40.40
84994;BME280;75309;44.830;20.460;2024-02-23T07:47:07;100042.22;;;14.50;40.36
84994;BME280;75309;44.830;20.460;2024-02-23T07:49:35;100037.70;;;14.56;40.54
84994;BME280;75309;44.830;20.460;2024-02-23T07:52:03;100035.04;;;14.60;40.46
84994;BME280;75309;44.830;20.460;2024-02-23T07:54:31;100033.04;;;14.62;40.51
84994;BME280;75309;44.830;20.460;2024-02-23T07:56:58;100030.15;;;14.63;40.58
84994;BME280;75309;44.830;20.460;2024-02-23T07:59:27;100028.13;;;14.66;40.72
84994;BME280;75309;44.830;20.460;2024-02-23T08:01:54;100024.09;;;14.70;40.78
84994;BME280;75309;44.830;20.460;2024-02-23T08:04:22;100024.34;;;14.74;40.73
84994;BME280;75309;44.830;20.460;2024-02-23T08:06:49;100021.81;;;14.77;40.68
84994;BME280;75309;44.830;20.460;2024-02-23T08:09:17;100022.08;;;14.81;40.90
84994;BME280;75309;44.830;20.460;2024-02-23T08:11:44;100014.55;;;14.85;40.80
84994;BME280;75309;44.830;20.460;2024-02-23T08:14:12;100014.14;;;14.89;40.60
84994;BME280;75309;44.830;20.460;2024-02-23T08:16:39;100010.91;;;14.92;40.71
84994;BME280;75309;44.830;20.460;2024-02-23T08:19:05;100016.48;;;14.94;40.77
84994;BME280;75309;44.830;20.460;2024-02-23T08:21:32;100013.74;;;14.95;40.62
84994;BME280;75309;44.830;20.460;2024-02-23T08:24:00;100010.63;;;14.95;40.69
84994;BME280;75309;44.830;20.460;2024-02-23T08:26:27;100006.67;;;14.95;40.80
84994;BME280;75309;44.830;20.460;2024-02-23T08:28:54;100006.64;;;14.93;41.15
84994;BME280;75309;44.830;20.460;2024-02-23T08:31:21;100011.79;;;14.92;41.12
84994;BME280;75309;44.830;20.460;2024-02-23T08:33:47;100010.25;;;14.93;41.26
84994;BME280;75309;44.830;20.460;2024-02-23T08:36:14;100009.58;;;14.94;41.22
84994;BME280;75309;44.830;20.460;2024-02-23T08:38:41;100004.77;;;14.94;41.44
84994;BME280;75309;44.830;20.460;2024-02-23T08:41:07;99999.10;;;14.96;41.52
84994;BME280;75309;44.830;20.460;2024-02-23T08:43:35;99993.98;;;14.99;41.45
84994;BME280;75309;44.830;20.460;2024-02-23T08:46:02;99989.73;;;15.02;41.41
84994;BME280;75309;44.830;20.460;2024-02-23T08:48:34;99984.58;;;15.04;41.35
84994;BME280;75309;44.830;20.460;2024-02-23T08:51:02;99985.00;;;15.07;41.36
84994;BME280;75309;44.830;20.460;2024-02-23T08:53:28;99988.55;;;15.13;41.45
84994;BME280;75309;44.830;20.460;2024-02-23T08:55:55;99987.27;;;15.18;41.29
84994;BME280;75309;44.830;20.460;2024-02-23T08:58:22;99989.79;;;15.23;41.27
84994;BME280;75309;44.830;20.460;2024-02-23T09:00:48;99995.96;;;15.30;41.16
84994;BME280;75309;44.830;20.460;2024-02-23T09:03:15;99998.02;;;15.38;41.03
84994;BME280;75309;44.830;20.460;2024-02-23T09:05:42;99998.17;;;15.47;41.10
84994;BME280;75309;44.830;20.460;2024-02-23T09:08:10;99991.64;;;15.58;40.95
84994;BME280;75309;44.830;20.460;2024-02-23T09:10:37;99994.38;;;15.67;40.69
84994;BME280;75309;44.830;20.460;2024-02-23T09:13:05;99994.34;;;15.74;40.73
84994;BME280;75309;44.830;20.460;2024-02-23T09:15:32;99990.22;;;15.76;40.81
84994;BME280;75309;44.830;20.460;2024-02-23T09:18:02;99987.78;;;15.75;40.66
84994;BME280;75309;44.830;20.460;2024-02-23T09:20:28;99990.36;;;15.74;40.70
84994;BME280;75309;44.830;20.460;2024-02-23T09:22:58;99994.09;;;15.70;40.53
84994;BME280;75309;44.830;20.460;2024-02-23T09:25:25;99994.92;;;15.68;40.61
84994;BME280;75309;44.830;20.460;2024-02-23T09:27:51;99995.73;;;15.65;40.56
84994;BME280;75309;44.830;20.460;2024-02-23T09:30:18;99997.59;;;15.62;40.58
84994;BME280;75309;44.830;20.460;2024-02-23T09:32:46;100003.60;;;15.60;40.59
84994;BME280;75309;44.830;20.460;2024-02-23T09:35:13;100005.64;;;15.59;40.65
84994;BME280;75309;44.830;20.460;2024-02-23T09:37:41;100001.54;;;15.61;40.53
84994;BME280;75309;44.830;20.460;2024-02-23T09:40:09;99998.33;;;15.65;40.50
84994;BME280;75309;44.830;20.460;2024-02-23T09:42:36;99996.83;;;15.68;40.50
84994;BME280;75309;44.830;20.460;2024-02-23T09:45:08;99999.66;;;15.72;40.59
84994;BME280;75309;44.830;20.460;2024-02-23T09:47:38;99997.51;;;15.78;40.40
84994;BME280;75309;44.830;20.460;2024-02-23T09:50:06;99996.94;;;15.84;40.29
84994;BME280;75309;44.830;20.460;2024-02-23T09:52:35;99991.87;;;15.90;40.24
84994;BME280;75309;44.830;20.460;2024-02-23T09:55:01;99992.32;;;15.96;40.43
84994;BME280;75309;44.830;20.460;2024-02-23T09:57:30;99987.92;;;16.02;40.36
84994;BME280;75309;44.830;20.460;2024-02-23T09:59:57;99988.52;;;16.07;40.42
84994;BME280;75309;44.830;20.460;2024-02-23T10:02:25;99985.94;;;16.09;40.41
84994;BME280;75309;44.830;20.460;2024-02-23T10:04:54;99981.08;;;16.08;40.22
84994;BME280;75309;44.830;20.460;2024-02-23T10:07:23;99982.50;;;16.10;40.06
84994;BME280;75309;44.830;20.460;2024-02-23T10:09:50;99980.98;;;16.13;40.08
84994;BME280;75309;44.830;20.460;2024-02-23T10:12:17;99983.46;;;16.16;39.98
84994;BME280;75309;44.830;20.460;2024-02-23T10:14:44;99986.27;;;16.19;39.79
84994;BME280;75309;44.830;20.460;2024-02-23T10:17:12;99985.63;;;16.22;39.89
84994;BME280;75309;44.830;20.460;2024-02-23T10:19:38;99983.46;;;16.28;39.83
84994;BME280;75309;44.830;20.460;2024-02-23T10:22:06;99981.83;;;16.33;39.55
84994;BME280;75309;44.830;20.460;2024-02-23T10:24:33;99979.27;;;16.36;39.75
84994;BME280;75309;44.830;20.460;2024-02-23T10:27:00;99977.89;;;16.37;39.61
84994;BME280;75309;44.830;20.460;2024-02-23T10:29:30;99978.45;;;16.39;39.53
84994;BME280;75309;44.830;20.460;2024-02-23T10:31:57;99976.91;;;16.41;39.55
84994;BME280;75309;44.830;20.460;2024-02-23T10:34:27;99975.91;;;16.44;39.48
84994;BME280;75309;44.830;20.460;2024-02-23T10:36:56;99975.06;;;16.46;39.43
84994;BME280;75309;44.830;20.460;2024-02-23T10:39:24;99976.65;;;16.47;39.41
84994;BME280;75309;44.830;20.460;2024-02-23T10:42:03;99967.90;;;16.53;39.38
84994;BME280;75309;44.830;20.460;2024-02-23T10:44:51;99961.97;;;16.61;39.27
84994;BME280;75309;44.830;20.460;2024-02-23T10:47:18;99960.81;;;16.66;39.31
84994;BME280;75309;44.830;20.460;2024-02-23T10:49:46;99955.61;;;16.65;39.38
84994;BME280;75309;44.830;20.460;2024-02-23T10:52:14;99950.80;;;16.68;39.21
84994;BME280;75309;44.830;20.460;2024-02-23T10:54:42;99953.08;;;16.69;39.11
84994;BME280;75309;44.830;20.460;2024-02-23T10:57:13;99948.92;;;16.71;39.42
84994;BME280;75309;44.830;20.460;2024-02-23T10:59:46;99945.17;;;16.75;39.07
84994;BME280;75309;44.830;20.460;2024-02-23T11:02:18;99943.51;;;16.81;39.04
84994;BME280;75309;44.830;20.460;2024-02-23T11:04:48;99940.84;;;16.88;39.13
84994;BME280;75309;44.830;20.460;2024-02-23T11:07:19;99939.75;;;16.97;38.99
84994;BME280;75309;44.830;20.460;2024-02-23T11:09:53;99938.98;;;17.06;38.80
84994;BME280;75309;44.830;20.460;2024-02-23T11:12:25;99935.44;;;17.15;38.89
84994;BME280;75309;44.830;20.460;2024-02-23T11:14:57;99933.95;;;17.21;38.86
84994;BME280;75309;44.830;20.460;2024-02-23T11:17:31;99930.01;;;17.26;38.60
84994;BME280;75309;44.830;20.460;2024-02-23T11:20:02;99927.44;;;17.28;38.42
84994;BME280;75309;44.830;20.460;2024-02-23T11:22:33;99923.33;;;17.33;38.32
84994;BME280;75309;44.830;20.460;2024-02-23T11:25:08;99919.20;;;17.36;38.07
84994;BME280;75309;44.830;20.460;2024-02-23T11:27:38;99916.79;;;17.38;38.04
84994;BME280;75309;44.830;20.460;2024-02-23T11:30:08;99916.48;;;17.42;37.80
84994;BME280;75309;44.830;20.460;2024-02-23T11:32:38;99913.57;;;17.46;37.47
84994;BME280;75309;44.830;20.460;2024-02-23T11:35:07;99911.69;;;17.49;37.41
84994;BME280;75309;44.830;20.460;2024-02-23T11:37:53;99908.41;;;17.51;37.18
84994;BME280;75309;44.830;20.460;2024-02-23T11:40:32;99908.75;;;17.50;37.18
84994;BME280;75309;44.830;20.460;2024-02-23T11:43:00;99914.30;;;17.49;37.01
84994;BME280;75309;44.830;20.460;2024-02-23T11:45:30;99917.70;;;17.43;36.95
84994;BME280;75309;44.830;20.460;2024-02-23T11:47:57;99915.96;;;17.43;37.08
84994;BME280;75309;44.830;20.460;2024-02-23T11:50:23;99909.05;;;17.45;37.05
84994;BME280;75309;44.830;20.460;2024-02-23T11:52:50;99905.95;;;17.46;36.85
84994;BME280;75309;44.830;20.460;2024-02-23T11:55:21;99898.52;;;17.48;36.74
84994;BME280;75309;44.830;20.460;2024-02-23T11:57:52;99896.11;;;17.52;36.78
84994;BME280;75309;44.830;20.460;2024-02-23T12:00:31;99890.48;;;17.61;36.65
84994;BME280;75309;44.830;20.460;2024-02-23T12:03:01;99886.02;;;17.67;36.57
84994;BME280;75309;44.830;20.460;2024-02-23T12:05:27;99888.83;;;17.73;36.46
84994;BME280;75309;44.830;20.460;2024-02-23T12:07:55;99888.18;;;17.78;36.39
84994;BME280;75309;44.830;20.460;2024-02-23T12:10:24;99883.02;;;17.83;35.96
84994;BME280;75309;44.830;20.460;2024-02-23T12:12:54;99880.11;;;17.90;35.93
84994;BME280;75309;44.830;20.460;2024-02-23T12:15:22;99876.37;;;17.97;35.78
84994;BME280;75309;44.830;20.460;2024-02-23T12:17:50;99879.49;;;17.98;35.38
84994;BME280;75309;44.830;20.460;2024-02-23T12:20:17;99874.11;;;17.96;35.31
84994;BME280;75309;44.830;20.460;2024-02-23T12:22:44;99874.29;;;17.96;35.43
84994;BME280;75309;44.830;20.460;2024-02-23T12:25:12;99873.80;;;18.02;35.36
84994;BME280;75309;44.830;20.460;2024-02-23T12:27:39;99871.77;;;18.11;35.14
84994;BME280;75309;44.830;20.460;2024-02-23T12:30:12;99864.36;;;18.21;35.01
84994;BME280;75309;44.830;20.460;2024-02-23T12:32:39;99864.55;;;18.24;34.61
84994;BME280;75309;44.830;20.460;2024-02-23T12:35:06;99864.91;;;18.23;34.52
84994;BME280;75309;44.830;20.460;2024-02-23T12:37:36;99866.28;;;18.23;34.15
84994;BME280;75309;44.830;20.460;2024-02-23T12:40:04;99871.67;;;18.25;34.36
84994;BME280;75309;44.830;20.460;2024-02-23T12:42:31;99873.07;;;18.30;34.25
84994;BME280;75309;44.830;20.460;2024-02-23T12:44:58;99875.02;;;18.36;34.45
84994;BME280;75309;44.830;20.460;2024-02-23T12:47:24;99874.69;;;18.41;34.41